createdAt,value
2016-06-05T00:00:26.789Z,19.82
2016-06-05T00:01:26.792Z,19.89
2016-06-05T00:02:26.686Z,19.76
2016-06-05T00:03:26.875Z,19.85
2016-06-05T00:04:26.910Z,19.86
2016-06-05T00:05:26.944Z,19.79
2016-06-05T00:06:26.994Z,19.84
2016-06-05T00:07:27.027Z,19.76
2016-06-05T00:08:26.904Z,19.7
2016-06-05T00:09:27.111Z,19.7
2016-06-05T00:10:27.160Z,19.62
2016-06-05T00:11:27.179Z,19.56
2016-06-05T00:12:27.869Z,19.67
2016-06-05T00:13:27.778Z,19.69
2016-06-05T00:14:27.296Z,19.66
2016-06-05T00:15:27.345Z,19.69
2016-06-05T00:16:27.395Z,19.55
2016-06-05T00:17:27.429Z,19.59
2016-06-05T00:18:27.463Z,19.58
2016-06-05T00:19:27.513Z,19.58
2016-06-05T00:20:27.562Z,19.56
2016-06-05T00:21:27.581Z,19.63
2016-06-05T00:22:27.615Z,19.58
2016-06-05T00:23:27.664Z,19.55
2016-06-05T00:24:27.698Z,19.56
2016-06-05T00:25:27.732Z,19.47
2016-06-05T00:26:27.782Z,19.56
2016-06-05T00:27:27.956Z,19.48
2016-06-05T00:28:28.490Z,19.45
2016-06-05T00:29:27.898Z,19.41
2016-06-05T00:30:27.933Z,19.47
2016-06-05T00:31:27.967Z,19.52
2016-06-05T00:32:28.016Z,19.51
2016-06-05T00:33:28.050Z,19.49
2016-06-05T00:34:28.084Z,19.48
2016-06-05T00:35:28.133Z,19.54
2016-06-05T00:36:28.167Z,19.51
2016-06-05T00:37:28.217Z,19.55
2016-06-05T00:38:28.095Z,19.52
2016-06-05T00:39:28.285Z,19.56
2016-06-05T00:40:28.319Z,19.56
2016-06-05T00:41:28.369Z,19.58
2016-06-05T00:42:28.263Z,19.59
2016-06-05T00:43:28.296Z,19.59
2016-06-05T00:44:28.485Z,19.62
2016-06-05T00:45:28.521Z,19.52
2016-06-05T00:46:28.554Z,19.66
2016-06-05T00:47:28.446Z,19.63
2016-06-05T00:48:28.637Z,19.73
2016-06-05T00:49:28.671Z,19.62
2016-06-05T00:50:28.565Z,19.59
2016-06-05T00:51:28.755Z,19.59
2016-06-05T00:52:28.789Z,19.59
2016-06-05T00:53:28.838Z,19.51
2016-06-05T00:54:28.873Z,19.47
2016-06-05T00:55:28.906Z,19.48
2016-06-05T00:56:28.956Z,19.48
2016-06-05T00:57:28.990Z,19.47
2016-06-05T00:58:29.462Z,19.56
2016-06-05T00:59:29.073Z,19.52
2016-06-05T01:00:29.107Z,19.4
2016-06-05T01:01:29.157Z,19.47
2016-06-05T01:02:29.206Z,19.39
2016-06-05T01:03:29.224Z,19.41
2016-06-05T01:04:29.275Z,19.39
2016-06-05T01:05:29.292Z,19.3
2016-06-05T01:06:29.342Z,19.37
2016-06-05T01:07:29.392Z,19.44
2016-06-05T01:08:29.425Z,19.3
2016-06-05T01:09:29.460Z,19.26
2016-06-05T01:10:29.509Z,19.34
2016-06-05T01:11:29.544Z,19.31
2016-06-05T01:12:29.561Z,19.3
2016-06-05T01:13:29.314Z,19.3
2016-06-05T01:14:29.644Z,19.36
2016-06-05T01:15:29.694Z,19.27
2016-06-05T01:16:29.729Z,19.24
2016-06-05T01:17:29.762Z,19.18
2016-06-05T01:18:29.796Z,19.24
2016-06-05T01:19:29.846Z,19.26
2016-06-05T01:20:29.880Z,19.15
2016-06-05T01:21:29.946Z,19.11
2016-06-05T01:22:29.963Z,19.15
2016-06-05T01:23:30.013Z,19.19
2016-06-05T01:24:30.031Z,19.18
2016-06-05T01:25:30.081Z,19.22
2016-06-05T01:26:30.131Z,19.21
2016-06-05T01:27:30.601Z,19.14
2016-06-05T01:28:30.417Z,19.12
2016-06-05T01:29:30.232Z,19.09
2016-06-05T01:30:30.266Z,18.96
2016-06-05T01:31:30.316Z,19
2016-06-05T01:32:30.350Z,19.09
2016-06-05T01:33:30.399Z,19.04
2016-06-05T01:34:30.433Z,19.02
2016-06-05T01:35:30.467Z,19.08
2016-06-05T01:36:30.501Z,18.99
2016-06-05T01:37:30.551Z,18.98
2016-06-05T01:38:30.584Z,18.98
2016-06-05T01:39:30.633Z,18.88
2016-06-05T01:40:30.669Z,18.92
2016-06-05T01:41:30.702Z,18.96
2016-06-05T01:42:30.736Z,19
2016-06-05T01:43:30.880Z,18.98
2016-06-05T01:44:30.836Z,18.96
2016-06-05T01:45:30.853Z,18.8
2016-06-05T01:46:30.902Z,18.89
2016-06-05T01:47:30.937Z,18.65
2016-06-05T01:48:30.971Z,18.59
2016-06-05T01:49:30.863Z,18.59
2016-06-05T01:50:31.055Z,18.55
2016-06-05T01:51:31.088Z,18.58
2016-06-05T01:52:31.138Z,18.62
2016-06-05T01:53:31.171Z,18.63
2016-06-05T01:54:31.206Z,18.68
2016-06-05T01:55:30.943Z,18.77
2016-06-05T01:56:31.290Z,18.74
2016-06-05T01:57:31.339Z,18.88
2016-06-05T01:58:32.028Z,18.8
2016-06-05T01:59:31.406Z,18.78
2016-06-05T02:00:31.441Z,18.84
2016-06-05T02:01:31.490Z,18.73
2016-06-05T02:02:31.524Z,18.83
2016-06-05T02:03:31.559Z,18.86
2016-06-05T02:04:31.592Z,18.84
2016-06-05T02:05:31.642Z,18.84
2016-06-05T02:06:31.519Z,18.88
2016-06-05T02:07:31.709Z,18.7
2016-06-05T02:08:31.759Z,18.77
2016-06-05T02:09:31.792Z,18.77
2016-06-05T02:10:31.686Z,18.73
2016-06-05T02:11:31.877Z,18.7
2016-06-05T02:12:32.145Z,18.78
2016-06-05T02:13:32.663Z,18.74
2016-06-05T02:14:31.978Z,18.78
2016-06-05T02:15:32.027Z,18.74
2016-06-05T02:16:32.061Z,18.7
2016-06-05T02:17:32.096Z,18.65
2016-06-05T02:18:31.988Z,18.59
2016-06-05T02:19:32.194Z,18.6
2016-06-05T02:20:32.213Z,18.55
2016-06-05T02:21:32.263Z,18.49
2016-06-05T02:22:32.312Z,18.52
2016-06-05T02:23:32.330Z,18.53
2016-06-05T02:24:32.364Z,18.49
2016-06-05T02:25:32.414Z,18.5
2016-06-05T02:26:32.449Z,18.5
2016-06-05T02:27:32.498Z,18.52
2016-06-05T02:28:32.375Z,18.56
2016-06-05T02:29:32.565Z,18.5
2016-06-05T02:30:32.599Z,18.56
2016-06-05T02:31:32.649Z,18.53
2016-06-05T02:32:32.683Z,18.53
2016-06-05T02:33:32.717Z,18.59
2016-06-05T02:34:32.751Z,18.56
2016-06-05T02:35:32.644Z,18.56
2016-06-05T02:36:32.850Z,18.59
2016-06-05T02:37:32.868Z,18.52
2016-06-05T02:38:32.918Z,18.5
2016-06-05T02:39:32.952Z,18.58
2016-06-05T02:40:32.985Z,18.52
2016-06-05T02:41:33.020Z,18.45
2016-06-05T02:42:33.756Z,18.38
2016-06-05T02:43:33.290Z,18.49
2016-06-05T02:44:33.137Z,18.55
2016-06-05T02:45:33.186Z,18.47
2016-06-05T02:46:33.221Z,18.38
2016-06-05T02:47:33.255Z,18.29
2016-06-05T02:48:33.305Z,18.23
2016-06-05T02:49:33.338Z,18.35
2016-06-05T02:50:33.372Z,18.25
2016-06-05T02:51:33.406Z,18.33
2016-06-05T02:52:33.456Z,18.26
2016-06-05T02:53:33.490Z,18.23
2016-06-05T02:54:33.523Z,18.25
2016-06-05T02:55:33.558Z,18.26
2016-06-05T02:56:33.591Z,18.26
2016-06-05T02:57:33.500Z,18.22
2016-06-05T02:58:33.863Z,18.19
2016-06-05T02:59:33.709Z,18.2
2016-06-05T03:00:33.758Z,18.19
2016-06-05T03:01:33.792Z,18.22
2016-06-05T03:02:33.826Z,18.13
2016-06-05T03:03:33.876Z,18.1
2016-06-05T03:04:33.909Z,18.18
2016-06-05T03:05:33.959Z,18.2
2016-06-05T03:06:33.977Z,18.16
2016-06-05T03:07:34.027Z,18.15
2016-06-05T03:08:34.061Z,18.13
2016-06-05T03:09:33.953Z,18.01
2016-06-05T03:10:34.145Z,18.05
2016-06-05T03:11:34.195Z,18.08
2016-06-05T03:12:34.541Z,18.01
2016-06-05T03:13:34.153Z,18.03
2016-06-05T03:14:34.296Z,18.04
2016-06-05T03:15:34.189Z,17.97
2016-06-05T03:16:34.364Z,17.94
2016-06-05T03:17:34.397Z,18.03
2016-06-05T03:18:34.447Z,18
2016-06-05T03:19:34.480Z,17.92
2016-06-05T03:20:34.530Z,17.92
2016-06-05T03:21:34.565Z,17.92
2016-06-05T03:22:34.598Z,17.83
2016-06-05T03:23:34.632Z,17.92
2016-06-05T03:24:34.666Z,17.95
2016-06-05T03:25:34.716Z,17.92
2016-06-05T03:26:34.750Z,17.95
2016-06-05T03:27:34.862Z,17.94
2016-06-05T03:28:34.677Z,17.89
2016-06-05T03:29:34.868Z,17.94
2016-06-05T03:30:34.901Z,17.94
2016-06-05T03:31:34.935Z,17.94
2016-06-05T03:32:34.970Z,17.92
2016-06-05T03:33:35.018Z,17.95
2016-06-05T03:34:35.068Z,17.97
2016-06-05T03:35:35.087Z,17.94
2016-06-05T03:36:35.137Z,17.95
2016-06-05T03:37:35.170Z,17.98
2016-06-05T03:38:35.204Z,17.98
2016-06-05T03:39:35.098Z,18.04
2016-06-05T03:40:35.287Z,18.07
2016-06-05T03:41:35.322Z,18.07
2016-06-05T03:42:35.746Z,18.04
2016-06-05T03:43:35.812Z,18.05
2016-06-05T03:44:35.439Z,18.07
2016-06-05T03:45:35.488Z,18.1
2016-06-05T03:46:35.522Z,18.11
2016-06-05T03:47:35.556Z,18.11
2016-06-05T03:48:35.591Z,18.25
2016-06-05T03:49:35.641Z,18.22
2016-06-05T03:50:35.658Z,18.22
2016-06-05T03:51:35.708Z,18.22
2016-06-05T03:52:35.742Z,18.25
2016-06-05T03:53:35.776Z,18.22
2016-06-05T03:54:35.825Z,18.23
2016-06-05T03:55:35.860Z,18.29
2016-06-05T03:56:35.893Z,18.25
2016-06-05T03:57:36.755Z,18.41
2016-06-05T03:58:35.664Z,18.28
2016-06-05T03:59:36.010Z,18.22
2016-06-05T04:00:36.045Z,18.41
2016-06-05T04:01:36.094Z,18.26
2016-06-05T04:02:36.129Z,18.25
2016-06-05T04:03:36.162Z,18.29
2016-06-05T04:04:36.196Z,18.37
2016-06-05T04:05:36.246Z,18.4
2016-06-05T04:06:36.279Z,18.41
2016-06-05T04:07:36.329Z,18.35
2016-06-05T04:08:36.362Z,18.34
2016-06-05T04:09:36.397Z,18.34
2016-06-05T04:10:36.431Z,18.35
2016-06-05T04:11:36.465Z,18.37
2016-06-05T04:12:37.170Z,18.5
2016-06-05T04:13:36.392Z,18.35
2016-06-05T04:14:36.583Z,18.37
2016-06-05T04:15:36.632Z,18.31
2016-06-05T04:16:36.681Z,18.37
2016-06-05T04:17:36.707Z,18.4
2016-06-05T04:18:36.768Z,18.49
2016-06-05T04:19:36.845Z,18.49
2016-06-05T04:20:36.907Z,18.56
2016-06-05T04:21:36.984Z,18.53
2016-06-05T04:22:37.041Z,18.52
2016-06-05T04:23:37.085Z,18.59
2016-06-05T04:24:37.145Z,18.66
2016-06-05T04:25:37.173Z,18.66
2016-06-05T04:26:37.217Z,18.78
2016-06-05T04:27:37.275Z,18.88
2016-06-05T04:28:38.517Z,18.92
2016-06-05T04:29:37.351Z,18.93
2016-06-05T04:30:37.405Z,19.21
2016-06-05T04:31:37.442Z,19.66
2016-06-05T04:32:37.479Z,20.02
2016-06-05T04:33:37.529Z,20.52
2016-06-05T04:34:37.565Z,21.06
2016-06-05T04:35:37.600Z,21.58
2016-06-05T04:36:37.666Z,21.82
2016-06-05T04:37:37.685Z,22.08
2016-06-05T04:38:37.736Z,22.44
2016-06-05T04:39:37.784Z,22.83
2016-06-05T04:40:37.804Z,22.94
2016-06-05T04:41:37.838Z,22.87
2016-06-05T04:42:38.107Z,23.03
2016-06-05T04:43:38.502Z,23.02
2016-06-05T04:44:37.973Z,22.76
2016-06-05T04:45:38.007Z,22.83
2016-06-05T04:46:38.042Z,23.2
2016-06-05T04:47:38.091Z,23.2
2016-06-05T04:48:38.125Z,23.43
2016-06-05T04:49:38.159Z,23.47
2016-06-05T04:50:38.208Z,23.54
2016-06-05T04:51:38.258Z,23.65
2016-06-05T04:52:38.277Z,23.83
2016-06-05T04:53:38.326Z,24.13
2016-06-05T04:54:38.375Z,24.39
2016-06-05T04:55:38.410Z,24.58
2016-06-05T04:56:38.443Z,24.57
2016-06-05T04:57:38.806Z,24.7
2016-06-05T04:58:38.402Z,24.54
2016-06-05T04:59:38.577Z,24.61
2016-06-05T05:00:38.626Z,24.61
2016-06-05T05:01:38.660Z,24.78
2016-06-05T05:02:38.694Z,25.03
2016-06-05T05:03:38.743Z,25.06
2016-06-05T05:04:38.777Z,25.17
2016-06-05T05:05:38.827Z,25.22
2016-06-05T05:06:38.861Z,25.41
2016-06-05T05:07:38.895Z,25.59
2016-06-05T05:08:38.960Z,25.73
2016-06-05T05:09:38.994Z,25.53
2016-06-05T05:10:39.044Z,25.59
2016-06-05T05:11:39.093Z,25.69
2016-06-05T05:12:39.798Z,25.99
2016-06-05T05:13:39.521Z,26.18
2016-06-05T05:14:39.195Z,26.52
2016-06-05T05:15:39.260Z,26.68
2016-06-05T05:16:39.294Z,26.99
2016-06-05T05:17:39.328Z,27.1
2016-06-05T05:18:39.378Z,27.11
2016-06-05T05:19:39.427Z,27.11
2016-06-05T05:20:39.461Z,26.85
2016-06-05T05:21:39.511Z,26.99
2016-06-05T05:22:39.545Z,27.27
2016-06-05T05:23:39.595Z,26.68
2016-06-05T05:24:39.659Z,26.62
2016-06-05T05:25:39.694Z,26.45
2016-06-05T05:26:39.728Z,26.68
2016-06-05T05:27:39.792Z,26.73
2016-06-05T05:28:39.842Z,26.66
2016-06-05T05:29:39.860Z,26.33
2016-06-05T05:30:39.894Z,26.21
2016-06-05T05:31:39.944Z,26.43
2016-06-05T05:32:39.994Z,26.66
2016-06-05T05:33:40.043Z,26.77
2016-06-05T05:34:40.077Z,27.32
2016-06-05T05:35:40.126Z,27.78
2016-06-05T05:36:40.176Z,27.52
2016-06-05T05:37:40.210Z,27
2016-06-05T05:38:40.260Z,26.09
2016-06-05T05:39:40.309Z,25.62
2016-06-05T05:40:40.343Z,25.53
2016-06-05T05:41:40.393Z,26.38
2016-06-05T05:42:40.458Z,26.85
2016-06-05T05:43:40.960Z,26.56
2016-06-05T05:44:40.525Z,26.18
2016-06-05T05:45:40.576Z,25.62
2016-06-05T05:46:40.625Z,25.08
2016-06-05T05:47:40.659Z,25.03
2016-06-05T05:48:40.708Z,25.17
2016-06-05T05:49:40.742Z,25.44
2016-06-05T05:50:40.792Z,25.84
2016-06-05T05:51:40.842Z,26.41
2016-06-05T05:52:40.891Z,27.07
2016-06-05T05:53:40.925Z,27.35
2016-06-05T05:54:40.975Z,27.15
2016-06-05T05:55:41.039Z,27.3
2016-06-05T05:56:41.074Z,26.71
2016-06-05T05:57:41.123Z,26.16
2016-06-05T05:58:41.158Z,25.63
2016-06-05T05:59:41.285Z,25.43
2016-06-05T06:00:41.256Z,24.86
2016-06-05T06:01:41.306Z,24.61
2016-06-05T06:02:41.340Z,24.29
2016-06-05T06:03:41.389Z,23.96
2016-06-05T06:04:41.424Z,23.74
2016-06-05T06:05:41.457Z,23.55
2016-06-05T06:06:41.522Z,23.17
2016-06-05T06:07:41.556Z,22.87
2016-06-05T06:08:41.606Z,22.73
2016-06-05T06:09:41.640Z,22.76
2016-06-05T06:10:41.532Z,22.54
2016-06-05T06:11:41.739Z,22.17
2016-06-05T06:12:41.929Z,22.25
2016-06-05T06:13:42.182Z,22.13
2016-06-05T06:14:41.856Z,22.04
2016-06-05T06:15:41.921Z,22.06
2016-06-05T06:16:41.956Z,22.04
2016-06-05T06:17:41.989Z,21.99
2016-06-05T06:18:42.039Z,21.96
2016-06-05T06:19:42.104Z,22.2
2016-06-05T06:20:42.123Z,22.13
2016-06-05T06:21:42.172Z,22.14
2016-06-05T06:22:42.206Z,22.2
2016-06-05T06:23:42.271Z,22.26
2016-06-05T06:24:42.290Z,22.3
2016-06-05T06:25:42.339Z,22.33
2016-06-05T06:26:42.372Z,22.25
2016-06-05T06:27:42.485Z,22.18
2016-06-05T06:28:42.613Z,22.26
2016-06-05T06:29:42.505Z,22.33
2016-06-05T06:30:42.555Z,22.33
2016-06-05T06:31:42.589Z,22.23
2016-06-05T06:32:42.624Z,22.18
2016-06-05T06:33:42.673Z,22.2
2016-06-05T06:34:42.738Z,22.26
2016-06-05T06:35:42.772Z,22.17
2016-06-05T06:36:42.806Z,22.14
2016-06-05T06:37:42.840Z,22.22
2016-06-05T06:38:42.905Z,22.2
2016-06-05T06:39:42.924Z,22.22
2016-06-05T06:40:42.973Z,22.35
2016-06-05T06:41:43.023Z,22.32
2016-06-05T06:42:43.088Z,22.1
2016-06-05T06:43:43.543Z,22.14
2016-06-05T06:44:43.156Z,22.11
2016-06-05T06:45:43.190Z,22.15
2016-06-05T06:46:43.223Z,22.13
2016-06-05T06:47:43.274Z,22.08
2016-06-05T06:48:43.323Z,22.15
2016-06-05T06:49:43.341Z,22.08
2016-06-05T06:50:43.406Z,22.11
2016-06-05T06:51:43.440Z,22.2
2016-06-05T06:52:43.318Z,22.23
2016-06-05T06:53:43.508Z,22.29
2016-06-05T06:54:43.573Z,22.35
2016-06-05T06:55:43.591Z,22.35
2016-06-05T06:56:43.641Z,22.38
2016-06-05T06:57:44.284Z,22.36
2016-06-05T06:58:43.991Z,22.35
2016-06-05T06:59:43.789Z,22.35
2016-06-05T07:00:43.808Z,22.45
2016-06-05T07:01:43.842Z,22.43
2016-06-05T07:02:43.876Z,22.36
2016-06-05T07:03:43.925Z,22.44
2016-06-05T07:04:43.991Z,22.36
2016-06-05T07:05:44.010Z,22.48
2016-06-05T07:06:44.044Z,22.57
2016-06-05T07:07:44.093Z,22.59
2016-06-05T07:08:44.127Z,22.69
2016-06-05T07:09:44.192Z,22.65
2016-06-05T07:10:44.226Z,22.57
2016-06-05T07:11:44.259Z,22.59
2016-06-05T07:12:45.278Z,22.5
2016-06-05T07:13:44.344Z,22.81
2016-06-05T07:14:44.393Z,22.68
2016-06-05T07:15:44.412Z,22.65
2016-06-05T07:16:44.460Z,22.63
2016-06-05T07:17:44.494Z,22.7
2016-06-05T07:18:44.545Z,22.87
2016-06-05T07:19:44.579Z,22.91
2016-06-05T07:20:44.628Z,22.99
2016-06-05T07:21:44.677Z,23.08
2016-06-05T07:22:44.711Z,23.1
2016-06-05T07:23:44.745Z,22.96
2016-06-05T07:24:44.779Z,22.84
2016-06-05T07:25:44.828Z,22.99
2016-06-05T07:26:44.878Z,23.02
2016-06-05T07:27:45.662Z,23.09
2016-06-05T07:28:45.197Z,23.15
2016-06-05T07:29:44.995Z,23.24
2016-06-05T07:30:45.030Z,23.2
2016-06-05T07:31:45.080Z,23.1
2016-06-05T07:32:45.175Z,23.17
2016-06-05T07:33:45.163Z,23.21
2016-06-05T07:34:45.197Z,23.37
2016-06-05T07:35:45.246Z,23.59
2016-06-05T07:36:45.296Z,23.74
2016-06-05T07:37:45.313Z,23.63
2016-06-05T07:38:45.364Z,23.56
2016-06-05T07:39:45.413Z,23.71
2016-06-05T07:40:45.447Z,23.81
2016-06-05T07:41:45.496Z,23.95
2016-06-05T07:42:45.530Z,23.83
2016-06-05T07:43:45.424Z,24.02
2016-06-05T07:44:46.504Z,24.24
2016-06-05T07:45:45.663Z,24.66
2016-06-05T07:46:45.698Z,25.43
2016-06-05T07:47:45.732Z,26.43
2016-06-05T07:48:45.781Z,27.21
2016-06-05T07:49:45.815Z,28.26
2016-06-05T07:50:45.865Z,29.14
2016-06-05T07:51:45.898Z,29.95
2016-06-05T07:52:45.948Z,30.43
2016-06-05T07:53:45.982Z,31.06
2016-06-05T07:54:46.031Z,30.4
2016-06-05T07:55:46.081Z,30.7
2016-06-05T07:56:46.115Z,30.77
2016-06-05T07:57:46.289Z,31.56
2016-06-05T07:58:46.215Z,31.99
2016-06-05T07:59:46.264Z,32.36
2016-06-05T08:00:46.313Z,31.65
2016-06-05T08:01:46.192Z,31.62
2016-06-05T08:02:46.397Z,31.69
2016-06-05T08:03:46.430Z,31.85
2016-06-05T08:04:46.496Z,31.99
2016-06-05T08:05:46.546Z,32.18
2016-06-05T08:06:46.595Z,32.53
2016-06-05T08:07:46.629Z,32.78
2016-06-05T08:08:46.679Z,32.21
2016-06-05T08:09:46.728Z,31.81
2016-06-05T08:10:46.777Z,32.38
2016-06-05T08:11:46.827Z,32.65
2016-06-05T08:12:47.096Z,31.96
2016-06-05T08:13:46.927Z,32.27
2016-06-05T08:14:46.976Z,32.89
2016-06-05T08:15:47.025Z,33.32
2016-06-05T08:16:47.090Z,33.32
2016-06-05T08:17:47.124Z,32.59
2016-06-05T08:18:47.174Z,31.56
2016-06-05T08:19:47.223Z,31.44
2016-06-05T08:20:47.273Z,30.81
2016-06-05T08:21:47.323Z,31.03
2016-06-05T08:22:47.216Z,31.2
2016-06-05T08:23:47.423Z,31.09
2016-06-05T08:24:47.472Z,30.68
2016-06-05T08:25:47.521Z,31.42
2016-06-05T08:26:47.586Z,32.41
2016-06-05T08:27:48.605Z,31.7
2016-06-05T08:28:47.529Z,31.17
2016-06-05T08:29:47.720Z,31.61
2016-06-05T08:30:47.784Z,31.31
2016-06-05T08:31:47.834Z,30.5
2016-06-05T08:32:47.744Z,30.7
2016-06-05T08:33:47.934Z,30.53
2016-06-05T08:34:47.999Z,29.59
2016-06-05T08:35:48.033Z,29.23
2016-06-05T08:36:48.082Z,28.91
2016-06-05T08:37:48.132Z,28.91
2016-06-05T08:38:48.196Z,29.29
2016-06-05T08:39:48.090Z,29.61
2016-06-05T08:40:48.296Z,29.68
2016-06-05T08:41:48.346Z,29.95
2016-06-05T08:42:48.411Z,30.62
2016-06-05T08:43:49.007Z,30.08
2016-06-05T08:44:48.494Z,30.13
2016-06-05T08:45:48.544Z,30.94
2016-06-05T08:46:48.593Z,30.88
2016-06-05T08:47:48.643Z,30.8
2016-06-05T08:48:48.693Z,30.39
2016-06-05T08:49:48.742Z,29.98
2016-06-05T08:50:48.792Z,29.94
2016-06-05T08:51:48.857Z,29.97
2016-06-05T08:52:48.922Z,30.23
2016-06-05T08:53:48.956Z,30.65
2016-06-05T08:54:48.989Z,30.59
2016-06-05T08:55:49.055Z,30.81
2016-06-05T08:56:49.104Z,31.09
2016-06-05T08:57:49.248Z,30.06
2016-06-05T08:58:50.172Z,29.71
2016-06-05T08:59:49.253Z,29.72
2016-06-05T09:00:49.319Z,30.18
2016-06-05T09:01:49.353Z,30.91
2016-06-05T09:02:49.245Z,31.33
2016-06-05T09:03:49.467Z,31.47
2016-06-05T09:04:49.501Z,31.1
2016-06-05T09:05:49.567Z,30.84
2016-06-05T09:06:49.631Z,30.13
2016-06-05T09:07:49.666Z,29.27
2016-06-05T09:08:49.559Z,29.5
2016-06-05T09:09:49.764Z,29.73
2016-06-05T09:10:49.814Z,29.54
2016-06-05T09:11:49.863Z,29.69
2016-06-05T09:12:49.929Z,30.12
2016-06-05T09:13:51.041Z,29.94
2016-06-05T09:14:50.012Z,30.28
2016-06-05T09:15:50.077Z,30.84
2016-06-05T09:16:50.143Z,30.12
2016-06-05T09:17:50.177Z,29.54
2016-06-05T09:18:50.226Z,29.73
2016-06-05T09:19:50.276Z,29.57
2016-06-05T09:20:50.326Z,30.19
2016-06-05T09:21:50.376Z,30.63
2016-06-05T09:22:50.424Z,30.53
2016-06-05T09:23:50.489Z,30.51
2016-06-05T09:24:50.539Z,30.91
2016-06-05T09:25:50.574Z,31.74
2016-06-05T09:26:50.639Z,32.37
2016-06-05T09:27:51.578Z,32.29
2016-06-05T09:28:51.847Z,32.59
2016-06-05T09:29:50.787Z,32.96
2016-06-05T09:30:50.837Z,32.22
2016-06-05T09:31:50.886Z,32.01
2016-06-05T09:32:50.936Z,31.56
2016-06-05T09:33:51.001Z,31.46
2016-06-05T09:34:51.036Z,31.47
2016-06-05T09:35:51.100Z,31.8
2016-06-05T09:36:51.149Z,31.42
2016-06-05T09:37:51.199Z,31.39
2016-06-05T09:38:51.264Z,32.37
2016-06-05T09:39:51.299Z,32.26
2016-06-05T09:40:51.363Z,32.03
2016-06-05T09:41:51.398Z,31.89
2016-06-05T09:42:51.463Z,31.33
2016-06-05T09:43:51.574Z,30.81
2016-06-05T09:44:51.562Z,31.18
2016-06-05T09:45:51.611Z,30.91
2016-06-05T09:46:51.677Z,30.77
2016-06-05T09:47:51.726Z,30.87
2016-06-05T09:48:51.776Z,30.97
2016-06-05T09:49:51.826Z,30.73
2016-06-05T09:50:51.891Z,30.88
2016-06-05T09:51:51.924Z,31.44
2016-06-05T09:52:51.990Z,31.65
2016-06-05T09:53:52.039Z,31.69
2016-06-05T09:54:52.089Z,31.56
2016-06-05T09:55:52.138Z,31.46
2016-06-05T09:56:52.204Z,30.88
2016-06-05T09:57:52.581Z,30.51
2016-06-05T09:58:52.303Z,30.85
2016-06-05T09:59:52.353Z,29.97
2016-06-05T10:00:52.402Z,30.24
2016-06-05T10:01:52.451Z,31.18
2016-06-05T10:02:52.501Z,31.77
2016-06-05T10:03:52.566Z,32.33
2016-06-05T10:04:52.600Z,32.68
2016-06-05T10:05:52.664Z,33.05
2016-06-05T10:06:52.715Z,32.53
2016-06-05T10:07:52.764Z,30.99
2016-06-05T10:08:52.830Z,30.99
2016-06-05T10:09:52.863Z,31.7
2016-06-05T10:10:52.913Z,31.8
2016-06-05T10:11:52.994Z,31.31
2016-06-05T10:12:53.419Z,31.27
2016-06-05T10:13:53.218Z,31.74
2016-06-05T10:14:53.126Z,31.74
2016-06-05T10:15:53.176Z,31.17
2016-06-05T10:16:53.241Z,31.17
2016-06-05T10:17:53.307Z,31.52
2016-06-05T10:18:53.371Z,31.64
2016-06-05T10:19:53.406Z,31.64
2016-06-05T10:20:53.455Z,31.94
2016-06-05T10:21:53.489Z,32.27
2016-06-05T10:22:53.554Z,32.58
2016-06-05T10:23:53.620Z,32.6
2016-06-05T10:24:53.654Z,32.45
2016-06-05T10:25:53.719Z,32.9
2016-06-05T10:26:53.768Z,33.52
2016-06-05T10:27:53.817Z,33.89
2016-06-05T10:28:53.727Z,34.06
2016-06-05T10:29:53.918Z,34.02
2016-06-05T10:30:53.982Z,33.84
2016-06-05T10:31:54.031Z,34.77
2016-06-05T10:32:54.081Z,35.7
2016-06-05T10:33:54.147Z,34.78
2016-06-05T10:34:54.197Z,35.1
2016-06-05T10:35:54.245Z,34.18
2016-06-05T10:36:54.295Z,33.76
2016-06-05T10:37:54.361Z,33.74
2016-06-05T10:38:54.425Z,33.67
2016-06-05T10:39:54.475Z,33.45
2016-06-05T10:40:54.525Z,33.58
2016-06-05T10:41:54.590Z,33.32
2016-06-05T10:42:54.655Z,32.68
2016-06-05T10:43:54.908Z,32.97
2016-06-05T10:44:54.738Z,33.3
2016-06-05T10:45:54.789Z,33.68
2016-06-05T10:46:54.854Z,33.79
2016-06-05T10:47:54.918Z,34.32
2016-06-05T10:48:54.968Z,34.14
2016-06-05T10:49:55.018Z,34.73
2016-06-05T10:50:55.068Z,34.97
2016-06-05T10:51:55.132Z,34.21
2016-06-05T10:52:55.198Z,34.18
2016-06-05T10:53:55.090Z,34.11
2016-06-05T10:54:55.141Z,34.3
2016-06-05T10:55:55.362Z,33.28
2016-06-05T10:56:55.412Z,32.11
2016-06-05T10:57:55.383Z,31.17
2016-06-05T10:58:55.854Z,30.72
2016-06-05T10:59:55.576Z,30.75
2016-06-05T11:00:55.625Z,31.28
2016-06-05T11:01:55.675Z,32.07
2016-06-05T11:02:55.740Z,33.01
2016-06-05T11:03:55.790Z,32.74
2016-06-05T11:04:55.856Z,32.04
2016-06-05T11:05:55.905Z,31.7
2016-06-05T11:06:55.969Z,32.04
2016-06-05T11:07:56.019Z,32.07
2016-06-05T11:08:56.069Z,31.84
2016-06-05T11:09:56.119Z,31.69
2016-06-05T11:10:56.169Z,32.23
2016-06-05T11:11:56.233Z,32.93
2016-06-05T11:12:56.314Z,32.93
2016-06-05T11:13:56.880Z,32.56
2016-06-05T11:14:56.414Z,32.97
2016-06-05T11:15:56.446Z,33.45
2016-06-05T11:16:56.512Z,33.31
2016-06-05T11:17:56.562Z,32.34
2016-06-05T11:18:56.611Z,31.54
2016-06-05T11:19:56.677Z,30.1
2016-06-05T11:20:56.726Z,28.98
2016-06-05T11:21:56.791Z,28.47
2016-06-05T11:22:56.840Z,28.94
2016-06-05T11:23:56.890Z,29.98
2016-06-05T11:24:56.940Z,31.15
2016-06-05T11:25:56.990Z,31.64
2016-06-05T11:26:57.055Z,31.56
2016-06-05T11:27:57.105Z,31.92
2016-06-05T11:28:57.185Z,31.8
2016-06-05T11:29:57.204Z,31.73
2016-06-05T11:30:57.268Z,31.51
2016-06-05T11:31:57.334Z,32.07
2016-06-05T11:32:57.368Z,32.85
2016-06-05T11:33:57.417Z,33.36
2016-06-05T11:34:57.467Z,33.76
2016-06-05T11:35:57.532Z,33.12
2016-06-05T11:36:57.581Z,32.71
2016-06-05T11:37:57.631Z,32.3
2016-06-05T11:38:57.697Z,32.19
2016-06-05T11:39:57.747Z,33.01
2016-06-05T11:40:57.639Z,33.83
2016-06-05T11:41:57.845Z,34.24
2016-06-05T11:42:57.754Z,33.24
2016-06-05T11:43:58.069Z,33.07
2016-06-05T11:44:58.010Z,32.19
2016-06-05T11:45:58.091Z,32.55
2016-06-05T11:46:58.124Z,32.63
2016-06-05T11:47:58.189Z,31.18
2016-06-05T11:48:58.239Z,30.55
2016-06-05T11:49:58.304Z,31.2
2016-06-05T11:50:58.354Z,31.69
2016-06-05T11:51:58.403Z,32.46
2016-06-05T11:52:58.452Z,33.32
2016-06-05T11:53:58.503Z,34.01
2016-06-05T11:54:58.552Z,34.6
2016-06-05T11:55:58.632Z,34.03
2016-06-05T11:56:58.682Z,32.96
2016-06-05T11:57:58.966Z,32.92
2016-06-05T11:58:59.906Z,33.11
2016-06-05T11:59:58.831Z,33.58
2016-06-05T12:00:58.912Z,34.3
2016-06-05T12:01:58.805Z,33.94
2016-06-05T12:02:59.011Z,33.73
2016-06-05T12:03:59.061Z,34.06
2016-06-05T12:04:59.125Z,34.88
2016-06-05T12:05:59.160Z,34.77
2016-06-05T12:06:59.226Z,34.7
2016-06-05T12:07:59.289Z,35.02
2016-06-05T12:08:59.340Z,34.78
2016-06-05T12:09:59.421Z,33.34
2016-06-05T12:10:59.455Z,30.87
2016-06-05T12:11:59.551Z,29.71
2016-06-05T12:13:00.195Z,29.07
2016-06-05T12:13:59.478Z,28.79
2016-06-05T12:14:59.699Z,28.66
2016-06-05T12:15:59.750Z,28.64
2016-06-05T12:16:59.799Z,29.57
2016-06-05T12:17:59.832Z,30.43
2016-06-05T12:18:59.898Z,31.29
2016-06-05T12:19:59.932Z,31.65
2016-06-05T12:20:59.997Z,32.14
2016-06-05T12:22:00.047Z,31.71
2016-06-05T12:23:00.112Z,31.71
2016-06-05T12:24:00.161Z,31.61
2016-06-05T12:25:00.226Z,32.45
2016-06-05T12:26:00.261Z,33.11
2016-06-05T12:27:00.309Z,33.86
2016-06-05T12:28:00.218Z,34.77
2016-06-05T12:29:00.893Z,34.32
2016-06-05T12:30:00.474Z,34.71
2016-06-05T12:31:00.539Z,34.85
2016-06-05T12:32:00.589Z,34.52
2016-06-05T12:33:00.639Z,34.83
2016-06-05T12:34:00.704Z,34.29
2016-06-05T12:35:00.754Z,33.01
2016-06-05T12:36:00.803Z,32.43
2016-06-05T12:37:00.867Z,32.45
2016-06-05T12:38:00.934Z,33.24
2016-06-05T12:39:00.983Z,32.82
2016-06-05T12:40:01.033Z,33.34
2016-06-05T12:41:01.097Z,33.24
2016-06-05T12:42:01.164Z,32.82
2016-06-05T12:43:01.228Z,33.17
2016-06-05T12:44:01.106Z,34.16
2016-06-05T12:45:01.312Z,33.53
2016-06-05T12:46:01.377Z,33.74
2016-06-05T12:47:01.427Z,33.37
2016-06-05T12:48:01.491Z,33.09
2016-06-05T12:49:01.557Z,33.47
2016-06-05T12:50:01.606Z,34.29
2016-06-05T12:51:01.655Z,34.4
2016-06-05T12:52:01.705Z,34.74
2016-06-05T12:53:01.771Z,35.29
2016-06-05T12:54:01.821Z,33.5
2016-06-05T12:55:01.885Z,32.71
2016-06-05T12:56:01.951Z,32.96